createdAt,value
2022-10-19T00:01:41.161Z,102081.88
2022-10-19T00:04:08.854Z,102072.56
2022-10-19T00:06:37.410Z,102063.00
2022-10-19T00:09:06.376Z,102082.25
2022-10-19T00:11:34.164Z,102070.19
2022-10-19T00:14:01.429Z,102055.59
2022-10-19T00:16:30.676Z,102064.72
2022-10-19T00:18:58.433Z,102064.72
2022-10-19T00:21:25.331Z,102040.03
2022-10-19T00:23:53.565Z,102061.53
2022-10-19T00:26:20.285Z,102061.72
2022-10-19T00:28:47.026Z,102053.34
2022-10-19T00:31:15.360Z,102060.00
2022-10-19T00:33:43.045Z,102059.38
2022-10-19T00:36:16.175Z,102072.75
2022-10-19T00:38:42.777Z,102045.75
2022-10-19T00:41:10.757Z,102059.31
2022-10-19T00:43:52.122Z,102069.56
2022-10-19T00:46:18.816Z,102054.59
2022-10-19T00:48:45.524Z,102074.59
2022-10-19T00:51:12.946Z,102081.75
2022-10-19T00:53:39.737Z,102081.75
2022-10-19T00:56:12.945Z,102086.09
2022-10-19T00:58:42.665Z,102083.94
2022-10-19T01:01:13.504Z,102087.91
2022-10-19T01:03:40.519Z,102081.31
2022-10-19T01:06:08.035Z,102091.19
2022-10-19T01:08:34.684Z,102082.59
2022-10-19T01:11:15.370Z,102084.97
2022-10-19T01:13:50.949Z,102086.19
2022-10-19T01:16:25.112Z,102076.69
2022-10-19T01:18:58.905Z,102082.13
2022-10-19T01:21:28.810Z,102081.47
2022-10-19T01:24:23.548Z,102055.38
2022-10-19T01:27:19.142Z,102082.97
2022-10-19T01:30:16.171Z,102083.91
2022-10-19T01:33:02.277Z,102082.09
2022-10-19T01:35:36.379Z,102078.81
2022-10-19T01:38:18.031Z,102081.47
2022-10-19T01:40:51.273Z,102077.31
2022-10-19T01:43:25.994Z,102080.78
2022-10-19T01:45:58.289Z,102072.13
2022-10-19T01:48:28.700Z,102062.03
2022-10-19T01:50:59.799Z,102067.97
2022-10-19T01:53:30.035Z,102056.75
2022-10-19T01:55:59.700Z,102058.47
2022-10-19T01:58:30.003Z,102042.16
2022-10-19T02:01:02.278Z,102047.25
2022-10-19T02:03:29.193Z,102041.97
2022-10-19T02:05:57.579Z,102045.56
2022-10-19T02:08:28.728Z,102034.25
2022-10-19T02:10:56.466Z,102023.50
2022-10-19T02:13:24.724Z,102038.28
2022-10-19T02:15:54.353Z,102034.13
2022-10-19T02:18:26.815Z,102033.22
2022-10-19T02:20:53.433Z,102030.66
2022-10-19T02:23:24.073Z,102006.16
2022-10-19T02:25:50.762Z,102003.13
2022-10-19T02:28:17.427Z,102032.16
2022-10-19T02:30:44.055Z,102014.69
2022-10-19T02:33:10.682Z,102033.53
2022-10-19T02:35:38.869Z,102031.09
2022-10-19T02:38:07.808Z,102022.84
2022-10-19T02:40:39.585Z,102020.59
2022-10-19T02:43:09.273Z,102026.72
2022-10-19T02:45:40.318Z,102021.72
2022-10-19T02:48:11.626Z,102008.22
2022-10-19T02:50:43.599Z,102006.69
2022-10-19T02:53:10.172Z,102021.13
2022-10-19T02:55:36.742Z,102017.91
2022-10-19T02:58:03.389Z,102024.00
2022-10-19T03:00:29.895Z,102005.44
2022-10-19T03:02:56.533Z,102016.38
2022-10-19T03:05:23.054Z,102024.28
2022-10-19T03:07:51.041Z,102024.28
2022-10-19T03:10:17.656Z,102022.59
2022-10-19T03:12:44.232Z,102022.50
2022-10-19T03:15:14.963Z,102010.81
2022-10-19T03:17:41.778Z,102019.38
2022-10-19T03:20:09.263Z,102018.59
2022-10-19T03:22:35.800Z,102017.84
2022-10-19T03:25:03.976Z,102014.38
2022-10-19T03:27:30.611Z,102013.69
2022-10-19T03:29:57.267Z,102011.25
2022-10-19T03:32:23.947Z,102004.69
2022-10-19T03:34:50.440Z,102006.06
2022-10-19T03:37:16.947Z,102000.28
2022-10-19T03:39:43.472Z,102009.53
2022-10-19T03:42:11.530Z,101998.34
2022-10-19T03:44:37.998Z,101993.31
2022-10-19T03:47:04.618Z,101995.44
2022-10-19T03:49:31.099Z,102000.31
2022-10-19T03:51:57.655Z,102007.53
2022-10-19T03:54:27.297Z,102005.00
2022-10-19T03:56:54.169Z,102007.72
2022-10-19T03:59:22.024Z,102009.50
2022-10-19T04:01:48.610Z,102015.72
2022-10-19T04:04:18.609Z,101995.88
2022-10-19T04:06:47.068Z,102003.69
2022-10-19T04:09:15.859Z,102006.38
2022-10-19T04:11:42.868Z,101998.09
2022-10-19T04:14:15.898Z,102010.47
2022-10-19T04:16:51.075Z,102002.06
2022-10-19T04:19:17.594Z,102006.88
2022-10-19T04:21:44.201Z,101990.41
2022-10-19T04:24:13.622Z,102009.44
2022-10-19T04:26:43.099Z,102010.44
2022-10-19T04:29:10.309Z,102006.34
2022-10-19T04:31:37.675Z,102010.16
2022-10-19T04:34:06.432Z,101997.06
2022-10-19T04:36:33.702Z,102008.59
2022-10-19T04:39:00.250Z,101992.59
2022-10-19T04:41:27.025Z,102026.81
2022-10-19T04:43:57.954Z,102018.91
2022-10-19T04:46:25.754Z,102002.50
2022-10-19T04:48:52.465Z,102021.88
2022-10-19T04:51:21.613Z,102025.44
2022-10-19T04:53:48.565Z,102023.88
2022-10-19T04:56:18.266Z,102019.72
2022-10-19T04:58:45.420Z,102010.78
2022-10-19T05:01:14.335Z,102028.84
2022-10-19T05:03:40.935Z,102026.22
2022-10-19T05:06:08.962Z,102016.72
2022-10-19T05:08:37.729Z,102011.44
2022-10-19T05:11:06.034Z,102014.19
2022-10-19T05:13:32.900Z,102006.44
2022-10-19T05:16:01.703Z,102000.50
2022-10-19T05:18:28.428Z,101997.34
2022-10-19T05:21:01.420Z,102006.50
2022-10-19T05:23:28.130Z,101995.94
2022-10-19T05:26:01.317Z,101999.28
2022-10-19T05:28:28.252Z,101984.59
2022-10-19T05:30:54.865Z,101996.34
2022-10-19T05:33:21.641Z,101957.88
2022-10-19T05:35:48.335Z,101997.78
2022-10-19T05:38:14.897Z,101997.84
2022-10-19T05:40:45.006Z,101977.41
2022-10-19T05:43:13.010Z,102001.59
2022-10-19T05:45:39.522Z,101988.53
2022-10-19T05:48:06.218Z,101989.19
2022-10-19T05:50:32.716Z,101996.22
2022-10-19T05:52:59.471Z,102003.97
2022-10-19T05:55:26.151Z,102000.50
2022-10-19T05:57:52.715Z,102004.88
2022-10-19T06:00:20.869Z,102008.28
2022-10-19T06:02:47.720Z,101983.41
2022-10-19T06:05:14.247Z,101995.75
2022-10-19T06:07:40.852Z,101988.56
2022-10-19T06:10:08.020Z,101989.50
2022-10-19T06:12:34.558Z,101993.22
2022-10-19T06:15:01.124Z,101994.97
2022-10-19T06:17:29.522Z,101982.16
2022-10-19T06:19:56.020Z,101986.44
2022-10-19T06:22:22.592Z,101996.63
2022-10-19T06:24:49.577Z,101991.75
2022-10-19T06:27:16.188Z,101984.03
2022-10-19T06:29:42.694Z,102001.03
2022-10-19T06:32:09.325Z,102004.25
2022-10-19T06:34:37.180Z,102003.56
2022-10-19T06:37:03.785Z,102000.03
2022-10-19T06:39:30.334Z,101968.81
2022-10-19T06:41:56.925Z,102006.66
2022-10-19T06:44:24.822Z,102011.38
2022-10-19T06:46:51.397Z,102022.06
2022-10-19T06:49:17.891Z,102027.63
2022-10-19T06:51:45.803Z,102007.69
2022-10-19T06:54:12.324Z,102003.91
2022-10-19T06:56:38.943Z,102031.50
2022-10-19T06:59:05.544Z,102025.53
2022-10-19T07:01:32.901Z,102031.09
2022-10-19T07:03:59.506Z,102013.13
2022-10-19T07:06:27.291Z,102030.03
2022-10-19T07:08:55.207Z,102023.75
2022-10-19T07:11:22.025Z,102024.59
2022-10-19T07:13:48.581Z,102021.91
2022-10-19T07:16:20.738Z,102015.72
2022-10-19T07:18:49.190Z,102025.22
2022-10-19T07:21:16.608Z,102013.72
2022-10-19T07:23:44.755Z,102008.84
2022-10-19T07:26:14.891Z,102016.34
2022-10-19T07:28:44.084Z,101973.03
2022-10-19T07:31:13.059Z,102016.94
2022-10-19T07:33:39.996Z,102014.50
2022-10-19T07:36:08.825Z,102029.09
2022-10-19T07:38:36.699Z,102009.56
2022-10-19T07:41:05.667Z,102008.16
2022-10-19T07:43:34.630Z,102017.97
2022-10-19T07:46:02.896Z,101963.28
2022-10-19T07:48:29.496Z,101978.69
2022-10-19T07:50:56.218Z,101977.16
2022-10-19T07:53:23.076Z,101987.94
2022-10-19T07:55:49.582Z,102008.34
2022-10-19T07:58:16.163Z,102017.25
2022-10-19T08:00:44.118Z,102016.81
2022-10-19T08:06:00.248Z,102010.25
2022-10-19T08:08:27.399Z,102027.00
2022-10-19T08:10:53.927Z,101993.13
2022-10-19T08:13:20.777Z,101996.88
2022-10-19T08:15:48.894Z,102016.75
2022-10-19T08:18:15.431Z,102018.09
2022-10-19T08:20:42.371Z,102012.00
2022-10-19T08:23:08.963Z,101995.13
2022-10-19T08:25:35.817Z,102011.25
2022-10-19T08:28:02.384Z,101993.94
2022-10-19T08:30:29.213Z,102011.16
2022-10-19T08:32:57.410Z,102014.03
2022-10-19T08:35:23.917Z,101988.13
2022-10-19T08:37:50.724Z,102006.66
2022-10-19T08:40:20.612Z,101954.88
2022-10-19T08:42:55.350Z,101960.56
2022-10-19T08:45:32.024Z,101987.53
2022-10-19T08:48:10.318Z,101980.59
2022-10-19T08:50:39.627Z,101979.84
2022-10-19T08:53:12.368Z,101981.63
2022-10-19T08:55:49.353Z,101977.72
2022-10-19T08:58:35.953Z,101949.66
2022-10-19T09:01:08.638Z,101966.47
2022-10-19T09:04:01.296Z,101967.22
2022-10-19T09:06:34.608Z,101958.19
2022-10-19T09:09:01.608Z,101946.34
2022-10-19T09:11:32.225Z,101895.22
2022-10-19T09:14:06.609Z,101945.91
2022-10-19T09:16:33.727Z,101925.91
2022-10-19T09:19:02.543Z,101934.41
2022-10-19T09:21:46.132Z,101936.50
2022-10-19T09:24:27.799Z,101944.56
2022-10-19T09:26:57.339Z,101939.22
2022-10-19T09:29:29.486Z,101927.72
2022-10-19T09:32:00.252Z,101945.28
2022-10-19T09:34:33.603Z,101902.81
2022-10-19T09:37:00.862Z,101933.47
2022-10-19T09:39:29.915Z,101941.16
2022-10-19T09:41:58.006Z,101941.97
2022-10-19T09:44:26.475Z,101938.03
2022-10-19T09:47:02.762Z,101934.56
2022-10-19T09:49:41.870Z,101924.00
2022-10-19T09:52:24.125Z,101925.63
2022-10-19T09:54:58.723Z,101907.47
2022-10-19T09:57:25.654Z,101925.59
2022-10-19T09:59:52.460Z,101917.16
2022-10-19T10:02:21.230Z,101906.34
2022-10-19T10:04:55.648Z,101898.44
2022-10-19T10:07:27.367Z,101894.56
2022-10-19T10:09:54.051Z,101914.13
2022-10-19T10:12:22.658Z,101914.84
2022-10-19T10:14:50.690Z,101907.81
2022-10-19T10:17:20.091Z,101863.56
2022-10-19T10:20:03.035Z,101805.72
2022-10-19T10:22:31.756Z,101917.97
2022-10-19T10:24:58.468Z,101899.50
2022-10-19T10:27:30.124Z,101902.50
2022-10-19T10:32:29.134Z,101892.53
2022-10-19T10:35:01.768Z,101878.63
2022-10-19T10:37:35.142Z,101889.91
2022-10-19T10:40:04.772Z,101873.44
2022-10-19T10:42:37.463Z,101883.09
2022-10-19T10:45:14.995Z,101879.38
2022-10-19T10:47:43.482Z,101875.50
2022-10-19T10:50:19.974Z,101877.94
2022-10-19T10:52:57.612Z,101873.97
2022-10-19T10:55:24.209Z,101863.75
2022-10-19T10:57:54.407Z,101863.81
2022-10-19T11:00:22.437Z,101861.72
2022-10-19T11:02:53.866Z,101844.78
2022-10-19T11:05:25.267Z,101840.56
2022-10-19T11:07:56.533Z,101827.00
2022-10-19T11:10:28.103Z,101853.06
2022-10-19T11:12:59.231Z,101844.25
2022-10-19T11:15:31.225Z,101831.06
2022-10-19T11:18:11.407Z,101819.84
2022-10-19T11:20:45.286Z,101832.44
2022-10-19T11:23:19.182Z,101821.38
2022-10-19T11:25:55.951Z,101833.41
2022-10-19T11:28:37.695Z,101828.09
2022-10-19T11:31:12.281Z,101811.66
2022-10-19T11:33:50.537Z,101808.44
2022-10-19T11:36:34.615Z,101800.56
2022-10-19T11:39:18.670Z,101788.78
2022-10-19T11:41:53.710Z,101800.06
2022-10-19T11:44:36.855Z,101778.69
2022-10-19T11:47:21.841Z,101783.13
2022-10-19T11:50:01.026Z,101782.00
2022-10-19T11:52:37.941Z,101783.47
2022-10-19T11:55:14.999Z,101777.22
2022-10-19T11:57:50.259Z,101776.88
2022-10-19T12:00:39.071Z,101778.50
2022-10-19T12:03:37.790Z,101771.56
2022-10-19T12:06:15.099Z,101764.63
2022-10-19T12:09:01.069Z,101758.06
2022-10-19T12:11:45.410Z,101756.00
2022-10-19T12:14:16.242Z,101752.41
2022-10-19T12:16:47.246Z,101749.25
2022-10-19T12:19:19.444Z,101741.47
2022-10-19T12:21:47.346Z,101738.16
2022-10-19T12:24:18.711Z,101712.91
2022-10-19T12:26:46.872Z,101728.69
2022-10-19T12:29:17.506Z,101728.81
2022-10-19T12:31:44.941Z,101718.47
2022-10-19T12:34:22.728Z,101707.13
2022-10-19T12:36:55.603Z,101700.94
2022-10-19T12:39:30.425Z,101705.19
2022-10-19T12:42:03.163Z,101692.16
2022-10-19T12:44:57.734Z,101700.25
2022-10-19T12:47:26.014Z,101686.41
2022-10-19T12:49:54.035Z,101687.63
2022-10-19T12:52:42.759Z,101677.63
2022-10-19T12:55:25.965Z,101672.13
2022-10-19T12:58:19.674Z,101677.69
2022-10-19T13:00:58.041Z,101666.66
2022-10-19T13:03:29.852Z,101662.16
2022-10-19T13:05:58.183Z,101662.72
2022-10-19T13:08:28.702Z,101655.03
2022-10-19T13:11:06.573Z,101635.38
2022-10-19T13:13:56.361Z,101651.16
2022-10-19T13:16:57.376Z,101629.03
2022-10-19T13:19:24.230Z,101643.13
2022-10-19T13:22:22.828Z,101635.94
2022-10-19T13:25:23.970Z,101645.31
2022-10-19T13:27:53.135Z,101641.31
2022-10-19T13:31:03.420Z,101640.13
2022-10-19T13:33:46.367Z,101631.44
2022-10-19T13:36:13.758Z,101626.59
2022-10-19T13:38:41.961Z,101622.53
2022-10-19T13:41:15.025Z,101604.97
2022-10-19T13:43:55.454Z,101624.88
2022-10-19T13:46:36.841Z,101627.88
2022-10-19T13:49:26.729Z,101608.09
2022-10-19T13:52:09.107Z,101612.97
2022-10-19T13:54:52.774Z,101592.34
2022-10-19T13:57:29.821Z,101616.78
2022-10-19T14:00:11.404Z,101606.88
2022-10-19T14:03:05.368Z,101580.59
2022-10-19T14:05:51.097Z,101612.97
2022-10-19T14:08:33.289Z,101588.34
2022-10-19T14:11:03.853Z,101599.75
2022-10-19T14:13:31.203Z,101591.66
2022-10-19T14:15:59.785Z,101591.53
2022-10-19T14:18:28.347Z,101595.72
2022-10-19T14:20:59.350Z,101604.75
2022-10-19T14:23:27.926Z,101601.53
2022-10-19T14:25:57.265Z,101596.81
2022-10-19T14:28:24.778Z,101591.81
2022-10-19T14:30:56.961Z,101559.63
2022-10-19T14:33:32.964Z,101592.59
2022-10-19T14:35:59.795Z,101587.59
2022-10-19T14:38:31.986Z,101590.41
2022-10-19T14:40:58.679Z,101583.53
2022-10-19T14:43:26.936Z,101570.97
2022-10-19T14:46:11.576Z,101573.00
2022-10-19T14:48:41.393Z,101572.66
2022-10-19T14:51:19.591Z,101553.03
2022-10-19T14:53:49.240Z,101561.19
2022-10-19T14:56:20.399Z,101550.44
2022-10-19T14:58:52.398Z,101551.91
2022-10-19T15:01:20.745Z,101559.28
2022-10-19T15:03:49.801Z,101538.94
2022-10-19T15:06:19.397Z,101545.84
2022-10-19T15:08:49.218Z,101511.72
2022-10-19T15:11:28.604Z,101535.03
2022-10-19T15:14:02.041Z,101525.13
2022-10-19T15:16:31.310Z,101530.91
2022-10-19T15:19:02.898Z,101528.38
2022-10-19T15:21:31.472Z,101533.59
2022-10-19T15:24:08.582Z,101525.31
2022-10-19T15:26:35.290Z,101523.00
2022-10-19T15:29:09.734Z,101537.28
2022-10-19T15:31:36.335Z,101534.97
2022-10-19T15:34:04.679Z,101483.19
2022-10-19T15:36:33.115Z,101527.94
2022-10-19T15:39:11.819Z,101516.19
2022-10-19T15:41:48.697Z,101529.84
2022-10-19T15:44:31.885Z,101533.03
2022-10-19T15:47:21.872Z,101519.25
2022-10-19T15:49:55.219Z,101520.34
2022-10-19T15:52:23.542Z,101525.94
2022-10-19T15:54:50.430Z,101519.03
2022-10-19T15:57:24.640Z,101520.53
2022-10-19T15:59:51.220Z,101516.34
2022-10-19T16:02:17.808Z,101496.78
2022-10-19T16:04:44.366Z,101506.41
2022-10-19T16:07:16.134Z,101513.91
2022-10-19T16:09:42.729Z,101508.94
2022-10-19T16:12:10.058Z,101506.31
2022-10-19T16:14:36.887Z,101491.50
2022-10-19T16:17:04.204Z,101498.69
2022-10-19T16:19:30.779Z,101502.41
2022-10-19T16:21:57.253Z,101508.03
2022-10-19T16:24:25.181Z,101505.50
2022-10-19T16:26:51.750Z,101498.53
2022-10-19T16:29:18.386Z,101481.09
2022-10-19T16:31:44.898Z,101492.00
2022-10-19T16:34:11.623Z,101491.31
2022-10-19T16:36:38.135Z,101492.44
2022-10-19T16:39:04.704Z,101490.06
2022-10-19T16:41:32.936Z,101433.63
2022-10-19T16:43:59.502Z,101488.06
2022-10-19T16:46:26.693Z,101474.28
2022-10-19T16:48:53.513Z,101475.69
2022-10-19T16:51:25.967Z,101488.78
2022-10-19T16:53:54.797Z,101490.44
2022-10-19T16:56:21.296Z,101473.84
2022-10-19T16:58:49.554Z,101496.06
2022-10-19T17:01:18.520Z,101494.75
2022-10-19T17:03:46.764Z,101493.84
2022-10-19T17:06:14.574Z,101490.28
2022-10-19T17:09:23.289Z,101498.31
2022-10-19T17:11:30.150Z,101465.56
2022-10-19T17:14:00.148Z,101499.28
2022-10-19T17:16:28.729Z,101491.63
2022-10-19T17:18:56.667Z,101494.78
2022-10-19T17:21:25.682Z,101492.88
2022-10-19T17:23:53.843Z,101492.53
2022-10-19T17:26:25.647Z,101492.34
2022-10-19T17:28:52.300Z,101486.25
2022-10-19T17:31:20.365Z,101472.47
2022-10-19T17:33:47.246Z,101495.78
2022-10-19T17:36:16.153Z,101455.41
2022-10-19T17:38:42.737Z,101499.91
2022-10-19T17:41:11.961Z,101498.72
2022-10-19T17:43:40.357Z,101496.44
2022-10-19T17:46:09.920Z,101493.28
2022-10-19T17:48:40.729Z,101494.63
2022-10-19T17:51:10.847Z,101500.25
2022-10-19T17:53:37.413Z,101466.31
2022-10-19T17:56:06.570Z,101477.63
2022-10-19T17:58:36.377Z,101490.75
2022-10-19T18:01:06.837Z,101479.53
2022-10-19T18:03:34.971Z,101494.44
2022-10-19T18:06:08.160Z,101488.16
2022-10-19T18:08:39.666Z,101505.09
2022-10-19T18:11:08.075Z,101495.84
2022-10-19T18:13:38.674Z,101492.59
2022-10-19T18:16:08.482Z,101467.28
2022-10-19T18:18:38.101Z,101498.66
2022-10-19T18:21:07.613Z,101498.06
2022-10-19T18:23:34.603Z,101499.28
2022-10-19T18:26:03.131Z,101483.13
2022-10-19T18:28:30.234Z,101481.94
2022-10-19T18:30:56.772Z,101459.66
2022-10-19T18:33:23.275Z,101468.94
2022-10-19T18:35:49.980Z,101464.94
2022-10-19T18:38:17.833Z,101464.53
2022-10-19T18:40:44.306Z,101471.84
2022-10-19T18:43:10.805Z,101441.78
2022-10-19T18:45:37.346Z,101450.28
2022-10-19T18:48:04.081Z,101466.75
2022-10-19T18:50:30.772Z,101461.59
2022-10-19T18:52:57.361Z,101458.78
2022-10-19T18:55:26.115Z,101454.97
2022-10-19T18:57:52.629Z,101448.09
2022-10-19T19:00:19.574Z,101454.69
2022-10-19T19:02:52.713Z,101454.19
2022-10-19T19:05:19.470Z,101449.09
2022-10-19T19:07:46.355Z,101445.53
2022-10-19T19:10:13.174Z,101445.88
2022-10-19T19:12:41.798Z,101441.75
2022-10-19T19:15:09.264Z,101415.97
2022-10-19T19:17:36.571Z,101438.19
2022-10-19T19:20:04.443Z,101430.94
2022-10-19T19:22:31.162Z,101432.94
2022-10-19T19:24:57.778Z,101432.44
2022-10-19T19:27:27.209Z,101437.09
2022-10-19T19:29:59.191Z,101433.09
2022-10-19T19:32:26.319Z,101437.81
2022-10-19T19:34:54.848Z,101402.63
2022-10-19T19:37:21.651Z,101427.94
2022-10-19T19:39:48.248Z,101404.66
2022-10-19T19:42:14.746Z,101418.03
2022-10-19T19:44:41.372Z,101401.72
2022-10-19T19:47:09.480Z,101424.91
2022-10-19T19:49:36.114Z,101418.16
2022-10-19T19:52:02.872Z,101412.25
2022-10-19T19:54:29.572Z,101392.84
2022-10-19T19:56:56.116Z,101400.44
2022-10-19T19:59:22.974Z,101379.16
2022-10-19T20:01:49.515Z,101375.78
2022-10-19T20:04:17.533Z,101352.72
2022-10-19T20:06:44.072Z,101362.94
2022-10-19T20:09:11.459Z,101367.38
2022-10-19T20:11:42.138Z,101378.31
2022-10-19T20:14:09.223Z,101363.47
2022-10-19T20:16:35.902Z,101358.94
2022-10-19T20:19:05.869Z,101356.41
2022-10-19T20:21:33.890Z,101351.97
2022-10-19T20:24:00.990Z,101375.38
2022-10-19T20:26:28.362Z,101368.84
2022-10-19T20:28:55.577Z,101369.91
2022-10-19T20:31:22.575Z,101371.78
2022-10-19T20:33:49.122Z,101363.16
2022-10-19T20:36:17.662Z,101374.84
2022-10-19T20:38:48.441Z,101368.09
2022-10-19T20:41:15.053Z,101371.91
2022-10-19T20:43:41.579Z,101370.06
2022-10-19T20:46:12.992Z,101359.88
2022-10-19T20:48:39.554Z,101338.91
2022-10-19T20:51:16.980Z,101351.53
2022-10-19T20:53:46.627Z,101355.97
2022-10-19T20:56:14.945Z,101362.47
2022-10-19T20:58:41.501Z,101358.28
2022-10-19T21:01:09.517Z,101355.44
2022-10-19T21:03:36.266Z,101348.69
2022-10-19T21:06:04.938Z,101317.56
2022-10-19T21:08:32.502Z,101347.84
2022-10-19T21:11:00.430Z,101339.34
2022-10-19T21:13:27.179Z,101328.66
2022-10-19T21:15:53.800Z,101319.34
2022-10-19T21:18:20.283Z,101336.47
2022-10-19T21:20:46.853Z,101330.03
2022-10-19T21:23:13.368Z,101330.16
2022-10-19T21:25:39.885Z,101318.97
2022-10-19T21:28:07.886Z,101320.97
2022-10-19T21:30:36.366Z,101295.47
2022-10-19T21:33:02.898Z,101312.88
2022-10-19T21:35:29.386Z,101287.88
2022-10-19T21:37:55.883Z,101304.78
2022-10-19T21:40:22.378Z,101299.66
2022-10-19T21:42:48.927Z,101301.25
2022-10-19T21:45:29.988Z,101311.19
2022-10-19T21:47:57.122Z,101306.19
2022-10-19T21:50:23.728Z,101311.56
2022-10-19T21:52:50.335Z,101308.31
2022-10-19T21:55:16.873Z,101305.75
2022-10-19T21:57:43.437Z,101306.59
2022-10-19T22:00:11.058Z,101306.84
2022-10-19T22:02:40.937Z,101305.13
2022-10-19T22:05:08.072Z,101309.75
2022-10-19T22:07:35.048Z,101304.47
2022-10-19T22:10:01.745Z,101298.41
2022-10-19T22:12:28.319Z,101285.75
2022-10-19T22:14:54.823Z,101293.88
2022-10-19T22:17:21.549Z,101296.50
2022-10-19T22:19:50.781Z,101301.75
2022-10-19T22:22:17.298Z,101311.44
2022-10-19T22:24:43.814Z,101290.34
2022-10-19T22:27:10.358Z,101306.16
2022-10-19T22:29:36.869Z,101281.13
2022-10-19T22:32:03.578Z,101293.25
2022-10-19T22:34:30.081Z,101298.09
2022-10-19T22:36:58.036Z,101286.81
2022-10-19T22:39:27.753Z,101290.63
2022-10-19T22:41:54.603Z,101284.72
2022-10-19T22:44:21.359Z,101279.78
2022-10-19T22:46:47.931Z,101260.72
2022-10-19T22:49:14.431Z,101263.88
2022-10-19T22:51:40.929Z,101259.34
2022-10-19T22:54:08.819Z,101263.03
2022-10-19T22:56:35.498Z,101261.34
2022-10-19T22:59:05.131Z,101260.81
2022-10-19T23:01:32.054Z,101221.00
2022-10-19T23:03:58.674Z,101217.00
2022-10-19T23:06:25.989Z,101241.53
2022-10-19T23:08:52.595Z,101234.66
2022-10-19T23:11:20.878Z,101228.69
2022-10-19T23:13:47.353Z,101220.91
2022-10-19T23:16:14.016Z,101213.25
2022-10-19T23:18:41.327Z,101209.94
2022-10-19T23:21:10.873Z,101205.72
2022-10-19T23:23:37.624Z,101187.88
2022-10-19T23:26:05.878Z,101177.22
2022-10-19T23:28:36.419Z,101198.59
2022-10-19T23:31:05.325Z,101197.75
2022-10-19T23:33:32.419Z,101190.28
2022-10-19T23:36:02.508Z,101142.09
2022-10-19T23:38:29.123Z,101170.19
2022-10-19T23:40:55.623Z,101185.78
2022-10-19T23:43:22.335Z,101186.41
2022-10-19T23:45:50.246Z,101179.28
2022-10-19T23:48:16.735Z,101177.69
2022-10-19T23:50:43.294Z,101181.81
2022-10-19T23:53:09.877Z,101154.97
2022-10-19T23:55:36.382Z,101176.44
2022-10-19T23:58:03.457Z,101172.84
